Time;durP1;ratioP1;P1;durP2;ratioP2;P2;SDS_P1;SDS_P2;PMS_P1;PMS_P2;Temp;Humidity;BMP_temperature;BMP_pressure;BME280_temperature;BME280_humidity;BME280_pressure;Samples;Min_cycle;Max_cycle;Signal;HPM_P1;HPM_P2
2023/03/17 00:02:20;;;;;;;;;;;;;;;5.26;100.00;95938.25;5064970;28;19928;-84
2023/03/17 00:04:46;;;;;;;;;;;;;;;5.28;100.00;95932.66;5066718;28;19934;-84
2023/03/17 00:07:17;;;;;;;;;;;;;;;5.30;100.00;95926.09;5068204;28;19968;-84
2023/03/17 00:09:43;;;;;;;;;;;;;;;5.32;100.00;95913.31;5080453;28;19947;-84
2023/03/17 00:12:11;;;;;;;;;;;;;;;5.39;100.00;95917.84;5071401;28;19928;-84
2023/03/17 00:14:38;;;;;;;;;;;;;;;5.42;100.00;95926.28;5075572;28;19925;-84
2023/03/17 00:17:05;;;;;;;;;;;;;;;5.42;100.00;95918.25;5074141;28;19935;-84
2023/03/17 00:19:34;;;;;;;;;;;;;;;5.39;100.00;95917.84;5070222;28;19933;-84
2023/03/17 00:22:01;;;;;;;;;;;;;;;5.40;100.00;95914.13;5068566;28;19928;-84
2023/03/17 00:24:30;;;;;;;;;;;;;;;5.38;100.00;95910.84;5065259;28;19924;-84
2023/03/17 00:26:56;;;;;;;;;;;;;;;5.37;100.00;95906.50;5071983;28;19934;-84
2023/03/17 00:29:24;;;;;;;;;;;;;;;5.39;100.00;95910.63;5073504;28;19925;-83
2023/03/17 00:31:51;;;;;;;;;;;;;;;5.37;100.00;95903.84;5068644;28;19935;-84
2023/03/17 00:34:22;;;;;;;;;;;;;;;5.37;100.00;95903.84;5070308;28;19924;-84
2023/03/17 00:36:50;;;;;;;;;;;;;;;5.30;100.00;95904.69;5068414;28;20026;-84
2023/03/17 00:39:17;;;;;;;;;;;;;;;5.30;100.00;95893.97;5067886;28;19940;-84
2023/03/17 00:41:45;;;;;;;;;;;;;;;5.26;100.00;95898.09;5073232;28;19924;-84
2023/03/17 00:44:13;;;;;;;;;;;;;;;5.26;100.00;95897.28;5072085;28;19925;-84
2023/03/17 00:46:40;;;;;;;;;;;;;;;5.31;100.00;95894.78;5071548;28;19925;-84
2023/03/17 00:49:13;;;;;;;;;;;;;;;5.31;100.00;95903.66;5079793;28;19925;-84
2023/03/17 00:51:40;;;;;;;;;;;;;;;5.23;100.00;95901.19;5059786;28;19925;-84
2023/03/17 00:54:07;;;;;;;;;;;;;;;5.14;100.00;95894.41;5066377;28;20063;-84
2023/03/17 00:56:34;;;;;;;;;;;;;;;5.12;100.00;95896.44;5071929;28;19968;-84
2023/03/17 00:59:02;;;;;;;;;;;;;;;5.10;100.00;95895.88;5085615;28;19951;-84
2023/03/17 01:01:29;;;;;;;;;;;;;;;4.93;100.00;95906.13;5070513;28;19931;-84
2023/03/17 01:03:56;;;;;;;;;;;;;;;4.95;100.00;95913.97;5071406;28;19929;-84
2023/03/17 01:06:23;;;;;;;;;;;;;;;4.85;100.00;95916.22;5071026;28;19931;-84
2023/03/17 01:08:51;;;;;;;;;;;;;;;4.79;100.00;95923.22;5056948;28;19924;-84
2023/03/17 01:11:19;;;;;;;;;;;;;;;4.72;100.00;95930.41;5062867;28;19936;-84
2023/03/17 01:13:47;;;;;;;;;;;;;;;4.71;100.00;95931.44;5068725;28;19967;-84
2023/03/17 01:16:15;;;;;;;;;;;;;;;4.71;100.00;95926.09;5071832;28;19974;-84
2023/03/17 01:18:42;;;;;;;;;;;;;;;4.73;100.00;95933.91;5068180;28;19924;-84
2023/03/17 01:21:09;;;;;;;;;;;;;;;4.76;100.00;95928.16;5071357;28;19998;-84
2023/03/17 01:23:36;;;;;;;;;;;;;;;4.80;100.00;95930.22;5072339;28;19935;-84
2023/03/17 01:26:04;;;;;;;;;;;;;;;4.83;100.00;95923.63;5068662;28;20019;-84
2023/03/17 01:28:31;;;;;;;;;;;;;;;4.87;100.00;95931.03;5065419;28;19924;-84
2023/03/17 01:30:58;;;;;;;;;;;;;;;4.78;100.00;95929.59;5065229;28;19924;-84
2023/03/17 01:33:26;;;;;;;;;;;;;;;4.72;100.00;95922.38;5069042;28;19931;-84
2023/03/17 01:35:53;;;;;;;;;;;;;;;4.71;100.00;95917.25;5071943;28;19982;-84
2023/03/17 01:38:20;;;;;;;;;;;;;;;4.66;100.00;95919.72;5069477;28;19925;-84
2023/03/17 01:40:48;;;;;;;;;;;;;;;4.66;100.00;95922.38;5077198;28;19928;-84
2023/03/17 01:43:20;;;;;;;;;;;;;;;4.69;100.00;95916.63;5065622;28;19925;-84
2023/03/17 01:46:06;;;;;;;;;;;;;;;4.73;100.00;95910.66;5084708;28;20023;-84
2023/03/17 01:48:37;;;;;;;;;;;;;;;4.79;100.00;95907.16;5057302;28;19929;-84
2023/03/17 01:51:06;;;;;;;;;;;;;;;4.84;100.00;95904.72;5068517;28;20066;-84
2023/03/17 01:53:34;;;;;;;;;;;;;;;4.86;100.00;95907.16;5067285;28;19929;-84
2023/03/17 01:56:02;;;;;;;;;;;;;;;4.89;100.00;95909.44;5067674;28;19924;-84
2023/03/17 01:58:30;;;;;;;;;;;;;;;4.79;100.00;95911.69;5071293;28;19924;-84
2023/03/17 02:00:56;;;;;;;;;;;;;;;4.76;100.00;95904.09;5071378;28;19928;-84
2023/03/17 02:03:23;;;;;;;;;;;;;;;4.74;100.00;95909.66;5067107;28;20033;-84
2023/03/17 02:05:52;;;;;;;;;;;;;;;4.74;100.00;95898.13;5069419;28;19924;-84
2023/03/17 02:08:19;;;;;;;;;;;;;;;4.75;100.00;95883.72;5066865;28;19925;-83
2023/03/17 02:10:49;;;;;;;;;;;;;;;4.78;100.00;95884.13;5063399;28;19935;-84
2023/03/17 02:13:16;;;;;;;;;;;;;;;4.80;100.00;95870.53;5067113;28;19932;-84
2023/03/17 02:15:45;;;;;;;;;;;;;;;4.78;100.00;95870.75;5067940;28;19991;-84
2023/03/17 02:18:12;;;;;;;;;;;;;;;4.75;100.00;95867.69;5066581;28;19933;-84
2023/03/17 02:21:13;;;;;;;;;;;;;;;4.68;100.00;95872.22;5070031;28;19924;-84
2023/03/17 02:23:43;;;;;;;;;;;;;;;4.64;100.00;95870.94;5069547;28;19925;-84
2023/03/17 02:26:10;;;;;;;;;;;;;;;4.56;100.00;95862.09;5069937;28;19924;-84
2023/03/17 02:28:38;;;;;;;;;;;;;;;4.54;100.00;95877.53;5070550;28;20648;-84
2023/03/17 02:31:05;;;;;;;;;;;;;;;4.57;100.00;95885.16;5070626;28;19928;-84
2023/03/17 02:33:32;;;;;;;;;;;;;;;4.60;100.00;95891.91;5054435;28;19925;-84
2023/03/17 02:35:59;;;;;;;;;;;;;;;4.64;100.00;95895.03;5064293;28;19974;-84
2023/03/17 02:38:26;;;;;;;;;;;;;;;4.68;100.00;95893.59;5067364;28;20023;-84
2023/03/17 02:40:54;;;;;;;;;;;;;;;4.64;100.00;95893.16;5061265;28;19929;-84
2023/03/17 02:43:22;;;;;;;;;;;;;;;4.62;100.00;95889.03;5058790;28;19925;-84
2023/03/17 02:45:48;;;;;;;;;;;;;;;4.55;100.00;95889.03;5057230;28;19929;-84
2023/03/17 02:48:15;;;;;;;;;;;;;;;4.51;100.00;95896.63;5072264;28;19931;-84
2023/03/17 02:50:42;;;;;;;;;;;;;;;4.47;100.00;95903.44;5070164;28;19935;-84
2023/03/17 02:53:08;;;;;;;;;;;;;;;4.44;100.00;95903.81;5079204;28;19925;-84
2023/03/17 02:55:35;;;;;;;;;;;;;;;4.44;100.00;95914.53;5064745;28;19931;-84
2023/03/17 02:58:03;;;;;;;;;;;;;;;4.48;100.00;95906.94;5065810;28;19928;-84
2023/03/17 03:00:31;;;;;;;;;;;;;;;4.47;100.00;95903.44;5065892;28;19967;-84
2023/03/17 03:02:57;;;;;;;;;;;;;;;4.51;100.00;95909.19;5070663;28;19929;-84
2023/03/17 03:05:25;;;;;;;;;;;;;;;4.51;100.00;95910.00;5081208;28;20111;-84
2023/03/17 03:07:52;;;;;;;;;;;;;;;4.50;100.00;95916.41;5063882;28;19964;-84
2023/03/17 03:10:19;;;;;;;;;;;;;;;4.56;100.00;95912.09;5068428;28;19929;-84
2023/03/17 03:12:45;;;;;;;;;;;;;;;4.58;100.00;95915.38;5060610;28;19933;-84
2023/03/17 03:15:14;;;;;;;;;;;;;;;4.57;100.00;95901.19;5065189;28;19928;-84
2023/03/17 03:17:41;;;;;;;;;;;;;;;4.61;100.00;95914.13;5062062;28;19932;-84
2023/03/17 03:20:09;;;;;;;;;;;;;;;4.58;100.00;95918.06;5079278;28;19929;-84
2023/03/17 03:22:36;;;;;;;;;;;;;;;4.54;100.00;95914.97;5081616;28;19939;-84
2023/03/17 03:25:03;;;;;;;;;;;;;;;4.49;100.00;95908.59;5063737;28;20014;-84
2023/03/17 03:27:31;;;;;;;;;;;;;;;4.43;100.00;95904.84;5076092;28;19933;-83
2023/03/17 03:29:57;;;;;;;;;;;;;;;4.37;100.00;95919.03;5083119;28;19928;-83
2023/03/17 03:32:26;;;;;;;;;;;;;;;4.33;100.00;95916.97;5064582;28;19928;-83
2023/03/17 03:34:53;;;;;;;;;;;;;;;4.30;100.00;95918.19;5065813;28;19980;-83
2023/03/17 03:37:20;;;;;;;;;;;;;;;4.30;100.00;95920.88;5083191;28;19952;-83
2023/03/17 03:39:47;;;;;;;;;;;;;;;4.29;100.00;95931.75;5064181;28;19933;-83
2023/03/17 03:42:13;;;;;;;;;;;;;;;4.28;100.00;95920.25;5061342;28;19940;-83
2023/03/17 03:44:40;;;;;;;;;;;;;;;4.27;100.00;95915.91;5066902;28;20159;-83
2023/03/17 03:47:07;;;;;;;;;;;;;;;4.21;100.00;95919.41;5069914;28;19931;-83
2023/03/17 03:49:35;;;;;;;;;;;;;;;4.11;100.00;95924.31;5074003;28;19955;-83
2023/03/17 03:52:02;;;;;;;;;;;;;;;4.09;100.00;95927.16;5073666;28;19935;-83
2023/03/17 03:54:29;;;;;;;;;;;;;;;4.09;100.00;95926.34;5089632;28;19924;-83
2023/03/17 03:56:56;;;;;;;;;;;;;;;4.12;100.00;95921.44;5082809;28;19925;-83
2023/03/17 03:59:22;;;;;;;;;;;;;;;4.08;100.00;95920.16;5067864;28;19955;-83
2023/03/17 04:01:49;;;;;;;;;;;;;;;4.03;100.00;95927.16;5069809;28;19932;-83
2023/03/17 04:04:16;;;;;;;;;;;;;;;4.00;100.00;95920.34;5073161;28;19924;-83
2023/03/17 04:06:44;;;;;;;;;;;;;;;3.98;100.00;95925.09;5072244;28;19932;-83
2023/03/17 04:09:11;;;;;;;;;;;;;;;4.04;100.00;95928.81;5063091;28;20247;-83
2023/03/17 04:11:38;;;;;;;;;;;;;;;4.09;100.00;95932.50;5086973;28;19928;-83
2023/03/17 04:14:05;;;;;;;;;;;;;;;4.09;100.00;95937.03;5073243;28;19932;-83
2023/03/17 04:16:32;;;;;;;;;;;;;;;4.08;100.00;95938.06;5067613;28;19978;-83
2023/03/17 04:18:58;;;;;;;;;;;;;;;4.08;100.00;95935.41;5067042;28;20016;-83
2023/03/17 04:21:25;;;;;;;;;;;;;;;4.04;100.00;95926.94;5059557;28;19991;-83
2023/03/17 04:23:53;;;;;;;;;;;;;;;4.01;100.00;95930.00;5084549;28;19925;-83
2023/03/17 04:26:21;;;;;;;;;;;;;;;3.98;100.00;95924.25;5083300;28;19924;-83
2023/03/17 04:28:49;;;;;;;;;;;;;;;3.97;100.00;95927.97;5062957;28;19928;-83
2023/03/17 04:31:16;;;;;;;;;;;;;;;3.95;100.00;95935.34;5062954;28;19925;-83
2023/03/17 04:33:43;;;;;;;;;;;;;;;3.94;100.00;95933.69;5070582;28;19928;-83
2023/03/17 04:36:15;;;;;;;;;;;;;;;3.93;100.00;95929.34;5069020;28;19966;-83
2023/03/17 04:38:42;;;;;;;;;;;;;;;3.85;100.00;95924.19;5083535;28;19928;-83
2023/03/17 04:41:10;;;;;;;;;;;;;;;3.79;100.00;95917.81;5069825;28;20033;-84
2023/03/17 04:43:37;;;;;;;;;;;;;;;3.73;100.00;95911.44;5069308;28;19933;-83
2023/03/17 04:46:03;;;;;;;;;;;;;;;3.73;100.00;95915.94;5071590;28;20023;-83
2023/03/17 04:48:31;;;;;;;;;;;;;;;3.65;100.00;95911.59;5069356;28;20023;-83
2023/03/17 04:50:58;;;;;;;;;;;;;;;3.63;100.00;95904.78;5065774;28;19978;-83
2023/03/17 04:53:26;;;;;;;;;;;;;;;3.63;100.00;95902.13;5080519;28;19978;-83
2023/03/17 04:55:52;;;;;;;;;;;;;;;3.65;100.00;95900.91;5067002;28;19928;-83
2023/03/17 04:58:20;;;;;;;;;;;;;;;3.66;100.00;95899.03;5066144;28;19976;-83
2023/03/17 05:00:47;;;;;;;;;;;;;;;3.67;100.00;95900.69;5064242;28;20015;-84
2023/03/17 05:03:14;;;;;;;;;;;;;;;3.64;100.00;95898.44;5082923;28;19935;-83
2023/03/17 05:05:42;;;;;;;;;;;;;;;3.60;100.00;95902.50;5081412;28;19925;-83
2023/03/17 05:08:08;;;;;;;;;;;;;;;3.54;100.00;95904.13;5063447;28;19940;-84
2023/03/17 05:10:35;;;;;;;;;;;;;;;3.56;100.00;95902.09;5066912;28;19971;-83
2023/03/17 05:13:02;;;;;;;;;;;;;;;3.54;100.00;95904.13;5067915;28;19936;-84
2023/03/17 05:15:30;;;;;;;;;;;;;;;3.56;100.00;95901.28;5075326;28;19951;-83
2023/03/17 05:17:57;;;;;;;;;;;;;;;3.56;100.00;95894.09;5071162;28;19964;-83
2023/03/17 05:20:24;;;;;;;;;;;;;;;3.57;100.00;95893.06;5065804;28;19924;-83
2023/03/17 05:22:52;;;;;;;;;;;;;;;3.60;100.00;95890.00;5062321;28;19924;-83
2023/03/17 05:25:19;;;;;;;;;;;;;;;3.64;100.00;95887.75;5082843;28;19924;-83
2023/03/17 05:27:47;;;;;;;;;;;;;;;3.67;100.00;95892.69;5069329;28;19933;-83
2023/03/17 05:30:14;;;;;;;;;;;;;;;3.67;100.00;95882.00;5059375;28;19924;-83
2023/03/17 05:32:43;;;;;;;;;;;;;;;3.69;100.00;95883.47;5081044;28;19955;-83
2023/03/17 05:35:10;;;;;;;;;;;;;;;3.68;100.00;95881.81;5066855;28;19928;-83
2023/03/17 05:37:36;;;;;;;;;;;;;;;3.63;100.00;95889.59;5081021;28;20009;-83
2023/03/17 05:40:03;;;;;;;;;;;;;;;3.58;100.00;95894.69;5064564;28;19925;-83
2023/03/17 05:42:30;;;;;;;;;;;;;;;3.47;100.00;95897.94;5069027;28;19935;-83
2023/03/17 05:44:57;;;;;;;;;;;;;;;3.43;100.00;95896.66;5069097;28;19929;-83
2023/03/17 05:47:24;;;;;;;;;;;;;;;3.44;100.00;95887.66;5069939;28;19925;-83
2023/03/17 05:49:52;;;;;;;;;;;;;;;3.49;100.00;95887.88;5070841;28;19956;-83
2023/03/17 05:52:20;;;;;;;;;;;;;;;3.54;100.00;95887.28;5067108;28;19924;-83
2023/03/17 05:54:47;;;;;;;;;;;;;;;3.54;100.00;95885.44;5068774;28;19932;-83
2023/03/17 05:57:15;;;;;;;;;;;;;;;3.46;100.00;95882.13;5069333;28;19924;-83
2023/03/17 05:59:42;;;;;;;;;;;;;;;3.47;100.00;95889.94;5065021;28;19931;-83
2023/03/17 06:02:10;;;;;;;;;;;;;;;3.56;100.00;95887.94;5078557;28;19928;-83
2023/03/17 06:04:36;;;;;;;;;;;;;;;3.60;100.00;95889.16;5062907;28;19931;-83
2023/03/17 06:07:05;;;;;;;;;;;;;;;3.60;100.00;95898.00;5068354;28;19924;-84
2023/03/17 06:09:32;;;;;;;;;;;;;;;3.61;100.00;95888.16;5068746;28;19999;-83
2023/03/17 06:11:59;;;;;;;;;;;;;;;3.65;100.00;95892.91;5067501;28;19928;-83
2023/03/17 06:14:26;;;;;;;;;;;;;;;3.67;100.00;95890.84;5071610;28;19924;-83
2023/03/17 06:16:53;;;;;;;;;;;;;;;3.68;100.00;95903.16;5070453;28;19925;-84
2023/03/17 06:19:20;;;;;;;;;;;;;;;3.69;100.00;95907.50;5060217;28;19925;-84
2023/03/17 06:21:47;;;;;;;;;;;;;;;3.65;100.00;95908.91;5071882;28;19932;-84
2023/03/17 06:24:15;;;;;;;;;;;;;;;3.64;100.00;95917.94;5069080;28;19931;-84
2023/03/17 06:26:42;;;;;;;;;;;;;;;3.58;100.00;95910.72;5087445;28;19952;-83
2023/03/17 06:29:10;;;;;;;;;;;;;;;3.57;100.00;95906.41;5078031;28;19935;-83
2023/03/17 06:31:37;;;;;;;;;;;;;;;3.61;100.00;95901.50;5080092;28;19924;-83
2023/03/17 06:34:04;;;;;;;;;;;;;;;3.67;100.00;95908.69;5069490;28;19924;-84
2023/03/17 06:36:31;;;;;;;;;;;;;;;3.67;100.00;95908.69;5072116;28;20027;-83
2023/03/17 06:38:59;;;;;;;;;;;;;;;3.70;100.00;95909.13;5072073;28;20039;-83
2023/03/17 06:41:27;;;;;;;;;;;;;;;3.80;100.00;95916.78;5069660;28;20041;-83
2023/03/17 06:43:54;;;;;;;;;;;;;;;3.85;100.00;95911.66;5079943;28;19930;-83
2023/03/17 06:46:21;;;;;;;;;;;;;;;3.91;100.00;95913.56;5068878;28;19925;-84
2023/03/17 06:48:48;;;;;;;;;;;;;;;3.95;100.00;95904.09;5063002;28;19924;-84
2023/03/17 06:51:15;;;;;;;;;;;;;;;3.97;100.00;95901.25;5066276;28;19947;-83
2023/03/17 06:53:41;;;;;;;;;;;;;;;3.97;100.00;95906.59;5064884;28;19924;-83
2023/03/17 06:56:08;;;;;;;;;;;;;;;3.98;100.00;95909.06;5065193;28;19950;-83
2023/03/17 06:58:36;;;;;;;;;;;;;;;3.96;100.00;95905.75;5063797;28;19931;-84
2023/03/17 07:01:04;;;;;;;;;;;;;;;3.98;100.00;95905.56;5069216;28;20035;-83
2023/03/17 07:03:31;;;;;;;;;;;;;;;3.99;100.00;95896.53;5071762;28;19951;-83
2023/03/17 07:05:59;;;;;;;;;;;;;;;4.02;100.00;95909.47;5061779;28;19960;-83
2023/03/17 07:08:29;;;;;;;;;;;;;;;4.02;100.00;95910.28;5066330;28;19924;-83
2023/03/17 07:10:57;;;;;;;;;;;;;;;3.98;100.00;95905.56;5066496;28;20025;-83
2023/03/17 07:13:24;;;;;;;;;;;;;;;3.98;100.00;95913.59;5066320;28;20026;-84
2023/03/17 07:15:54;;;;;;;;;;;;;;;4.02;100.00;95912.97;5069020;28;19925;-83
2023/03/17 07:18:20;;;;;;;;;;;;;;;4.11;100.00;95910.94;5066848;28;19933;-83
2023/03/17 07:20:47;;;;;;;;;;;;;;;4.16;100.00;95900.50;5065899;28;19932;-83
2023/03/17 07:23:14;;;;;;;;;;;;;;;4.17;100.00;95902.09;5062837;28;19924;-84
2023/03/17 07:25:42;;;;;;;;;;;;;;;4.22;100.00;95907.69;5058106;28;20021;-84
2023/03/17 07:28:10;;;;;;;;;;;;;;;4.26;100.00;95922.28;5066303;28;19932;-84
2023/03/17 07:31:01;;;;;;;;;;;;;;;4.32;100.00;95926.84;5101269;27;19920;-81
2023/03/17 07:33:28;;;;;;;;;;;;;;;4.35;100.00;95942.47;5105009;27;19924;-81
2023/03/17 07:35:55;;;;;;;;;;;;;;;4.31;100.00;95935.88;5082875;28;19930;-81
2023/03/17 07:38:22;;;;;;;;;;;;;;;4.12;100.00;95926.78;5107753;27;20359;-81
2023/03/17 07:40:49;;;;;;;;;;;;;;;4.15;100.00;95930.91;5090170;28;19925;-81
2023/03/17 07:43:16;;;;;;;;;;;;;;;4.26;100.00;95930.31;5084998;28;19936;-81
2023/03/17 07:45:43;;;;;;;;;;;;;;;4.38;100.00;95931.38;5079931;28;19933;-81
2023/03/17 07:48:11;;;;;;;;;;;;;;;4.50;100.00;95940.47;5080946;28;19924;-81
2023/03/17 07:50:38;;;;;;;;;;;;;;;4.68;100.00;95936.38;5075738;28;19931;-81
2023/03/17 07:53:05;;;;;;;;;;;;;;;4.69;100.00;95936.16;5073677;28;19956;-81
2023/03/17 07:55:32;;;;;;;;;;;;;;;4.74;100.00;95928.38;5080746;28;19924;-81
2023/03/17 07:57:59;;;;;;;;;;;;;;;4.81;100.00;95929.19;5090374;28;19978;-81
2023/03/17 08:00:26;;;;;;;;;;;;;;;4.89;100.00;95933.50;5078284;28;19936;-80
2023/03/17 08:02:54;;;;;;;;;;;;;;;4.94;100.00;95923.00;5113300;27;19928;-81
2023/03/17 08:05:22;;;;;;;;;;;;;;;4.91;100.00;95928.78;5076543;28;20019;-80
2023/03/17 08:07:49;;;;;;;;;;;;;;;4.94;100.00;95923.00;5090483;28;19928;-81
2023/03/17 08:10:17;;;;;;;;;;;;;;;5.01;100.00;95933.72;5090885;28;19940;-81
2023/03/17 08:12:44;;;;;;;;;;;;;;;5.05;100.00;95919.72;5093102;28;19929;-80
2023/03/17 08:15:11;;;;;;;;;;;;;;;5.12;100.00;95923.22;5085260;28;19924;-81
2023/03/17 08:17:38;;;;;;;;;;;;;;;5.21;100.00;95921.97;5079340;28;19925;-81
2023/03/17 08:20:06;;;;;;;;;;;;;;;5.26;100.00;95932.91;5084976;28;19924;-81
2023/03/17 08:22:34;;;;;;;;;;;;;;;5.30;100.00;95926.09;5077552;28;19939;-81
2023/03/17 08:25:01;;;;;;;;;;;;;;;5.37;100.00;95919.91;5067145;28;19924;-82
2023/03/17 08:27:28;;;;;;;;;;;;;;;5.43;100.00;95929.78;5082980;28;20011;-81
2023/03/17 08:29:55;;;;;;;;;;;;;;;5.48;100.00;95935.34;5094375;28;19925;-81
2023/03/17 08:32:22;;;;;;;;;;;;;;;5.54;100.00;95937.16;5074035;28;19932;-81
2023/03/17 08:34:52;;;;;;;;;;;;;;;5.71;100.00;95941.03;5071943;28;19924;-81
2023/03/17 08:37:20;;;;;;;;;;;;;;;5.89;100.00;95933.19;5084877;28;19931;-81
2023/03/17 08:39:48;;;;;;;;;;;;;;;6.12;100.00;95931.91;5075742;28;19933;-81
2023/03/17 08:42:15;;;;;;;;;;;;;;;6.35;100.00;95926.84;5063531;28;19936;-81
2023/03/17 08:44:42;;;;;;;;;;;;;;;6.53;100.00;95926.94;5065498;28;19929;-81
2023/03/17 08:47:08;;;;;;;;;;;;;;;6.72;100.00;95919.81;5069889;28;20014;-80
2023/03/17 08:49:35;;;;;;;;;;;;;;;6.86;100.00;95920.53;5094192;27;19931;-81
2023/03/17 08:52:02;;;;;;;;;;;;;;;6.95;100.00;95911.19;5070229;28;19924;-80
2023/03/17 08:54:29;;;;;;;;;;;;;;;7.08;100.00;95917.25;5052961;28;19925;-80
2023/03/17 08:56:57;;;;;;;;;;;;;;;7.27;100.00;95911.94;5056935;28;19929;-81
2023/03/17 08:59:24;;;;;;;;;;;;;;;7.44;100.00;95913.03;5062006;28;19983;-81
2023/03/17 09:01:51;;;;;;;;;;;;;;;7.56;100.00;95912.09;5066486;28;19929;-81
2023/03/17 09:04:18;;;;;;;;;;;;;;;7.70;100.00;95907.41;5101838;28;19924;-81
2023/03/17 09:06:44;;;;;;;;;;;;;;;7.85;100.00;95898.97;5094892;28;19963;-81
2023/03/17 09:09:11;;;;;;;;;;;;;;;8.07;100.00;95891.28;5065371;28;19924;-81
2023/03/17 09:11:39;;;;;;;;;;;;;;;8.29;100.00;95885.19;5067794;28;20011;-81
2023/03/17 09:14:08;;;;;;;;;;;;;;;8.51;100.00;95887.41;5089484;28;20151;-81
2023/03/17 09:16:34;;;;;;;;;;;;;;;8.72;99.32;95890.41;5058954;28;19924;-81
2023/03/17 09:19:02;;;;;;;;;;;;;;;8.80;96.93;95881.19;5070967;28;19928;-81
2023/03/17 09:21:29;;;;;;;;;;;;;;;8.99;97.34;95873.84;5066613;28;19929;-82
2023/03/17 09:23:56;;;;;;;;;;;;;;;9.22;94.62;95875.75;5065847;28;19971;-81
2023/03/17 09:26:23;;;;;;;;;;;;;;;9.33;88.72;95866.84;5087607;28;19926;-81
2023/03/17 09:28:51;;;;;;;;;;;;;;;9.47;87.63;95862.88;5059622;28;19928;-81
2023/03/17 09:31:19;;;;;;;;;;;;;;;9.58;87.10;95855.84;5088417;28;19946;-81
2023/03/17 09:33:46;;;;;;;;;;;;;;;9.59;85.73;95854.78;5073543;28;19924;-81
2023/03/17 09:36:13;;;;;;;;;;;;;;;9.64;82.21;95850.31;5085079;28;19930;-83
2023/03/17 09:38:40;;;;;;;;;;;;;;;9.83;84.86;95849.13;5087684;28;19928;-82
2023/03/17 09:41:18;;;;;;;;;;;;;;;10.04;83.53;95844.13;5091282;28;19930;-82
2023/03/17 09:43:48;;;;;;;;;;;;;;;10.14;84.02;95836.25;5093953;28;20001;-83
2023/03/17 09:46:25;;;;;;;;;;;;;;;10.32;81.75;95838.78;5098430;28;19960;-82
2023/03/17 09:48:59;;;;;;;;;;;;;;;10.55;81.91;95844.06;5107757;28;19928;-82
2023/03/17 09:51:25;;;;;;;;;;;;;;;10.84;80.87;95839.47;5082493;28;19932;-82
2023/03/17 09:53:58;;;;;;;;;;;;;;;11.11;78.80;95845.06;5090094;28;19933;-82
2023/03/17 09:56:26;;;;;;;;;;;;;;;11.20;79.88;95838.19;5093067;28;19928;-82
2023/03/17 09:58:54;;;;;;;;;;;;;;;11.31;79.67;95834.53;5087597;28;19935;-82
2023/03/17 10:01:22;;;;;;;;;;;;;;;11.54;77.96;95830.03;5076274;28;19931;-82
2023/03/17 10:03:50;;;;;;;;;;;;;;;11.69;73.72;95828.34;5095050;28;19924;-82
2023/03/17 10:06:24;;;;;;;;;;;;;;;11.82;73.00;95827.22;5093837;28;19931;-82
2023/03/17 10:08:55;;;;;;;;;;;;;;;11.99;74.74;95830.66;5110263;27;19970;-84
2023/03/17 10:11:26;;;;;;;;;;;;;;;12.03;76.69;95826.38;5082905;28;19964;-84
2023/03/17 10:13:58;;;;;;;;;;;;;;;12.00;76.87;95826.06;5092363;28;19924;-82
2023/03/17 10:16:30;;;;;;;;;;;;;;;12.07;76.52;95824.00;5099077;28;20085;-82
2023/03/17 10:19:00;;;;;;;;;;;;;;;12.29;74.52;95821.28;5102620;28;20023;-82
2023/03/17 10:21:30;;;;;;;;;;;;;;;12.33;74.85;95825.94;5103524;28;19925;-82
2023/03/17 10:23:58;;;;;;;;;;;;;;;12.38;74.51;95822.47;5087195;28;19924;-82
2023/03/17 10:26:27;;;;;;;;;;;;;;;12.53;74.82;95825.31;5088023;28;19924;-82
2023/03/17 10:28:54;;;;;;;;;;;;;;;12.67;74.11;95829.28;5084798;28;19924;-82
2023/03/17 10:31:27;;;;;;;;;;;;;;;12.86;75.23;95813.44;5087045;28;19966;-82
2023/03/17 10:33:57;;;;;;;;;;;;;;;13.06;74.39;95820.94;5078536;28;19932;-82
2023/03/17 10:36:36;;;;;;;;;;;;;;;13.21;73.79;95821.09;5084065;28;19928;-82
2023/03/17 10:39:04;;;;;;;;;;;;;;;13.25;76.08;95808.66;5091365;28;19924;-83
2023/03/17 10:41:32;;;;;;;;;;;;;;;13.47;74.31;95809.34;5091214;28;19924;-82
2023/03/17 10:43:59;;;;;;;;;;;;;;;13.55;71.68;95792.59;5080317;28;19949;-82
2023/03/17 10:46:28;;;;;;;;;;;;;;;13.57;71.11;95793.16;5074339;28;20023;-82
2023/03/17 10:48:57;;;;;;;;;;;;;;;13.63;68.75;95797.53;5082365;28;19924;-82
2023/03/17 10:51:28;;;;;;;;;;;;;;;13.73;68.99;95795.94;5085251;28;19924;-82
2023/03/17 10:53:59;;;;;;;;;;;;;;;13.75;67.89;95807.34;5083035;28;19931;-82
2023/03/17 10:56:28;;;;;;;;;;;;;;;13.73;67.24;95804.09;5082814;28;19981;-82
2023/03/17 10:58:55;;;;;;;;;;;;;;;13.47;69.25;95798.50;5087906;28;19928;-82
2023/03/17 11:01:27;;;;;;;;;;;;;;;13.53;70.11;95800.16;5095335;28;19924;-82
2023/03/17 11:03:56;;;;;;;;;;;;;;;13.42;69.95;95793.06;5086739;28;19999;-82
2023/03/17 11:06:31;;;;;;;;;;;;;;;13.53;71.11;95797.44;5083265;28;19990;-82
2023/03/17 11:09:05;;;;;;;;;;;;;;;13.74;71.32;95803.00;5082206;28;19972;-82
2023/03/17 11:11:34;;;;;;;;;;;;;;;13.82;66.62;95800.59;5092371;28;19947;-82
2023/03/17 11:14:04;;;;;;;;;;;;;;;13.86;67.30;95795.47;5075777;28;20007;-82
2023/03/17 11:16:34;;;;;;;;;;;;;;;13.84;65.32;95792.22;5102297;28;19931;-82
2023/03/17 11:19:02;;;;;;;;;;;;;;;13.79;65.81;95790.28;5076130;28;19925;-82
2023/03/17 11:21:30;;;;;;;;;;;;;;;13.83;65.97;95791.41;5091423;28;20019;-82
2023/03/17 11:24:03;;;;;;;;;;;;;;;13.93;67.29;95785.19;5084710;28;19924;-82
2023/03/17 11:26:47;;;;;;;;;;;;;;;13.96;65.94;95788.19;5092248;28;19970;-82
2023/03/17 11:29:21;;;;;;;;;;;;;;;13.95;62.68;95781.13;5070560;28;19924;-81
2023/03/17 11:31:51;;;;;;;;;;;;;;;14.17;63.82;95786.38;5086249;28;20037;-82
2023/03/17 11:34:22;;;;;;;;;;;;;;;14.25;64.98;95783.16;5095415;28;19969;-82
2023/03/17 11:36:55;;;;;;;;;;;;;;;14.28;64.24;95788.06;5100980;28;19971;-82
2023/03/17 11:39:26;;;;;;;;;;;;;;;14.23;62.65;95779.88;5094136;28;19925;-84
2023/03/17 11:42:00;;;;;;;;;;;;;;;14.36;61.81;95773.94;5082107;28;19924;-81
2023/03/17 11:44:55;;;;;;;;;;;;;;;14.62;58.40;95774.03;5088614;28;19928;-82
2023/03/17 11:47:30;;;;;;;;;;;;;;;14.88;57.60;95781.13;5058471;28;20010;-84
2023/03/17 11:50:02;;;;;;;;;;;;;;;15.06;57.73;95760.72;5091304;28;19953;-82
2023/03/17 11:52:32;;;;;;;;;;;;;;;15.32;57.70;95761.50;5078215;28;19963;-81
2023/03/17 11:55:07;;;;;;;;;;;;;;;15.49;56.22;95764.75;5085930;28;19978;-82
2023/03/17 11:57:40;;;;;;;;;;;;;;;15.50;54.91;95758.22;5090013;28;19925;-81
2023/03/17 12:00:16;;;;;;;;;;;;;;;15.64;54.96;95753.06;5084235;28;20210;-82
2023/03/17 12:02:43;;;;;;;;;;;;;;;15.80;54.45;95750.03;5089732;28;19939;-82
2023/03/17 12:05:14;;;;;;;;;;;;;;;15.82;55.83;95758.69;5090584;28;19924;-82
2023/03/17 12:07:44;;;;;;;;;;;;;;;15.72;56.07;95757.94;5075381;28;19999;-82
2023/03/17 12:10:16;;;;;;;;;;;;;;;15.86;55.16;95753.53;5089505;28;19925;-82
2023/03/17 12:12:47;;;;;;;;;;;;;;;15.94;53.45;95746.69;5090100;28;19927;-82
2023/03/17 12:15:17;;;;;;;;;;;;;;;15.97;51.59;95744.25;5083401;28;19935;-81
2023/03/17 12:17:48;;;;;;;;;;;;;;;16.17;51.03;95737.84;5088280;28;19946;-82
2023/03/17 12:20:17;;;;;;;;;;;;;;;16.47;51.98;95732.25;5087190;28;20038;-81
2023/03/17 12:22:46;;;;;;;;;;;;;;;16.63;49.92;95730.28;5089027;28;19924;-81
2023/03/17 12:25:18;;;;;;;;;;;;;;;16.59;51.11;95727.25;5097839;28;19931;-81
2023/03/17 12:27:50;;;;;;;;;;;;;;;16.94;51.14;95719.94;5086978;28;19929;-81
2023/03/17 12:30:21;;;;;;;;;;;;;;;17.01;50.51;95713.03;5086953;28;20022;-82
2023/03/17 12:32:52;;;;;;;;;;;;;;;17.13;48.78;95706.41;5094375;28;20086;-81
2023/03/17 12:35:25;;;;;;;;;;;;;;;17.23;50.27;95712.59;5076031;28;20019;-82
2023/03/17 12:37:52;;;;;;;;;;;;;;;17.20;49.95;95702.25;5076791;28;19947;-81
2023/03/17 12:40:22;;;;;;;;;;;;;;;17.24;49.76;95710.69;5100235;28;19927;-82
2023/03/17 12:42:52;;;;;;;;;;;;;;;17.14;48.06;95706.13;5081891;28;19924;-82
2023/03/17 12:45:34;;;;;;;;;;;;;;;17.05;48.03;95698.84;5096337;28;19925;-82
2023/03/17 12:48:11;;;;;;;;;;;;;;;16.87;47.95;95703.91;5077834;28;19931;-82
2023/03/17 12:50:51;;;;;;;;;;;;;;;16.72;48.47;95704.03;5095692;28;19939;-82
2023/03/17 12:53:26;;;;;;;;;;;;;;;16.90;48.97;95699.81;5106219;28;19961;-82
2023/03/17 12:55:57;;;;;;;;;;;;;;;17.00;48.02;95710.63;5075692;28;19924;-82